JER weather

Jersey Airport
Saint Helier, Jersey

Public forecast

Using degrees Celsius for public forecast. Weather courtesy of forecast.io.

Current aviation weather report (METAR) for Jersey Airport

Retrieved 2020/04/04 16:50 UTC (20 minutes ago):

EGJJ 041650Z AUTO 13014KT 9999 NCD 16/04 Q1016

Closest aviation forecast (TAF) to Jersey Airport

Forecast is more than 12 hours old.

Closest forecast is Dinard-Pleurtuit-Saint-Malo Airport, 37.5 nm (69.5 km) S. Retrieved 2020/03/24 06:21 UTC (11 days ago):

TAF LFRD 240500Z 2406/2506 13005KT CAVOK TEMPO 2412/2416 02008KT